Time;durP1;ratioP1;P1;durP2;ratioP2;P2;SDS_P1;SDS_P2;PMS_P1;PMS_P2;Temp;Humidity;BMP_temperature;BMP_pressure;BME280_temperature;BME280_humidity;BME280_pressure;Samples;Min_cycle;Max_cycle;Signal;HPM_P1;HPM_P2
2021/07/02 00:00:40;;;;;;;43.92;22.40;;;;;;;16.26;100.00;100538.38;5185646;28;20033;-80
2021/07/02 00:03:10;;;;;;;44.92;22.85;;;;;;;16.22;100.00;100535.06;5197264;28;20533;-78
2021/07/02 00:05:40;;;;;;;44.38;22.35;;;;;;;16.31;100.00;100539.81;5194685;28;20029;-80
2021/07/02 00:08:11;;;;;;;44.70;22.02;;;;;;;16.42;100.00;100537.41;5199992;28;20032;-77
2021/07/02 00:10:41;;;;;;;44.90;22.33;;;;;;;16.34;100.00;100536.97;5202590;28;20036;-76
2021/07/02 00:13:11;;;;;;;54.20;22.63;;;;;;;16.37;100.00;100534.19;5204238;28;20041;-77
2021/07/02 00:15:41;;;;;;;47.60;21.10;;;;;;;16.41;100.00;100530.41;5196607;28;20284;-77
2021/07/02 00:18:12;;;;;;;41.67;22.60;;;;;;;16.36;100.00;100535.13;5188995;28;20304;-77
2021/07/02 00:20:42;;;;;;;42.83;22.00;;;;;;;16.38;100.00;100527.97;5183064;28;20281;-77
2021/07/02 00:23:12;;;;;;;47.80;22.63;;;;;;;16.30;100.00;100529.34;5196787;28;20057;-79
2021/07/02 00:25:42;;;;;;;43.03;21.98;;;;;;;16.42;100.00;100534.75;5201748;28;20033;-80
2021/07/02 00:28:13;;;;;;;48.83;23.40;;;;;;;16.50;100.00;100526.38;5195629;28;20074;-80
2021/07/02 00:31:03;;;;;;;47.90;21.77;;;;;;;16.44;100.00;100527.63;5193988;28;20025;-82
2021/07/02 00:33:34;;;;;;;44.38;21.92;;;;;;;16.50;100.00;100529.88;5181294;28;20272;-82
2021/07/02 00:36:04;;;;;;;49.58;22.33;;;;;;;16.45;100.00;100528.47;5186320;28;20029;-78
2021/07/02 00:38:34;;;;;;;43.63;22.83;;;;;;;16.44;100.00;100526.75;5199129;28;20071;-77
2021/07/02 00:41:05;;;;;;;45.78;23.02;;;;;;;16.35;100.00;100528.16;5187634;28;20040;-79
2021/07/02 00:43:37;;;;;;;47.97;23.23;;;;;;;16.52;100.00;100524.53;5195542;28;20061;-81
2021/07/02 00:46:08;;;;;;;45.90;22.63;;;;;;;16.41;100.00;100533.06;5183306;28;20045;-80
2021/07/02 00:48:38;;;;;;;45.73;23.17;;;;;;;16.40;100.00;100520.81;5191943;28;20483;-81
2021/07/02 00:51:08;;;;;;;51.08;23.92;;;;;;;16.45;100.00;100524.03;5192731;28;20276;-81
2021/07/02 00:53:41;;;;;;;48.38;24.25;;;;;;;16.42;100.00;100520.72;5192323;28;20030;-81
2021/07/02 00:56:15;;;;;;;53.17;24.02;;;;;;;16.47;100.00;100535.34;5194327;28;20391;-79
2021/07/02 00:58:45;;;;;;;46.33;23.35;;;;;;;16.53;100.00;100529.69;5192446;28;20051;-80
2021/07/02 01:01:16;;;;;;;48.63;23.63;;;;;;;16.43;100.00;100525.94;5192726;28;20140;-80
2021/07/02 01:03:48;;;;;;;54.60;25.17;;;;;;;16.45;100.00;100529.31;5192351;28;20025;-81
2021/07/02 01:06:18;;;;;;;56.50;25.05;;;;;;;16.48;100.00;100517.72;5192732;28;20509;-82
2021/07/02 01:08:49;;;;;;;60.90;25.33;;;;;;;16.30;100.00;100524.06;5190590;28;20037;-81
2021/07/02 01:11:19;;;;;;;52.63;24.27;;;;;;;16.41;100.00;100516.41;5192562;28;20029;-81
2021/07/02 01:13:49;;;;;;;54.03;25.30;;;;;;;16.47;100.00;100522.16;5191001;28;20396;-78
2021/07/02 01:16:20;;;;;;;59.93;26.43;;;;;;;16.25;100.00;100516.41;5192742;28;20108;-80
2021/07/02 01:18:50;;;;;;;56.20;25.33;;;;;;;16.37;100.00;100523.63;5191366;28;20284;-80
2021/07/02 01:21:20;;;;;;;59.50;26.33;;;;;;;16.16;100.00;100511.69;5192547;28;20056;-78
2021/07/02 01:23:50;;;;;;;60.50;26.08;;;;;;;16.27;100.00;100518.97;5191288;28;20269;-79
2021/07/02 01:26:21;;;;;;;64.93;26.13;;;;;;;16.20;100.00;100526.41;5187288;28;20120;-78
2021/07/02 01:28:52;;;;;;;61.75;26.10;;;;;;;16.15;100.00;100523.19;5190626;28;20029;-80
2021/07/02 01:31:23;;;;;;;61.35;26.80;;;;;;;16.24;100.00;100527.06;5191876;28;20033;-80
2021/07/02 01:33:53;;;;;;;60.65;26.10;;;;;;;16.33;100.00;100524.72;5191111;28;20068;-79
2021/07/02 01:36:25;;;;;;;64.93;26.23;;;;;;;16.20;100.00;100534.31;5191987;28;20025;-81
2021/07/02 01:38:55;;;;;;;58.78;25.75;;;;;;;16.22;100.00;100534.22;5190934;28;20538;-81
2021/07/02 01:41:26;;;;;;;64.68;24.98;;;;;;;16.29;100.00;100530.28;5191821;28;20124;-80
2021/07/02 01:43:56;;;;;;;66.18;26.50;;;;;;;16.22;100.00;100532.44;5193533;28;20025;-81
2021/07/02 01:46:26;;;;;;;59.80;25.67;;;;;;;16.22;100.00;100536.88;5183669;28;20076;-80
2021/07/02 01:48:57;;;;;;;55.10;25.67;;;;;;;16.17;100.00;100537.13;5207479;28;20203;-81
2021/07/02 01:51:27;;;;;;;49.58;24.58;;;;;;;16.19;100.00;100527.34;5187965;28;20030;-81
2021/07/02 01:53:57;;;;;;;56.90;25.23;;;;;;;16.20;100.00;100536.94;5179584;28;20030;-80
2021/07/02 01:56:28;;;;;;;51.65;24.38;;;;;;;16.22;100.00;100537.69;5194703;28;20018;-77
2021/07/02 01:58:58;;;;;;;57.47;24.80;;;;;;;16.23;100.00;100539.41;5198556;28;20029;-78
2021/07/02 02:01:28;;;;;;;49.28;23.40;;;;;;;16.41;100.00;100527.78;5197605;28;20044;-79
2021/07/02 02:03:59;;;;;;;54.05;23.63;;;;;;;16.39;100.00;100534.13;5196706;28;20025;-79
2021/07/02 02:06:29;;;;;;;51.08;23.95;;;;;;;16.50;100.00;100532.53;5196971;28;20108;-79
2021/07/02 02:08:59;;;;;;;58.53;23.85;;;;;;;16.57;100.00;100540.91;5198421;28;20033;-77
2021/07/02 02:11:30;;;;;;;50.38;22.75;;;;;;;16.50;100.00;100537.78;5195817;28;20029;-78
2021/07/02 02:14:01;;;;;;;57.63;25.17;;;;;;;16.37;100.00;100534.19;5196938;28;20030;-80
2021/07/02 02:16:31;;;;;;;53.13;23.98;;;;;;;16.31;100.00;100536.31;5183219;28;20476;-77
2021/07/02 02:19:01;;;;;;;53.83;23.80;;;;;;;16.29;100.00;100533.78;5191158;28;20101;-81
2021/07/02 02:21:32;;;;;;;48.22;23.65;;;;;;;16.40;100.00;100536.63;5181789;28;20276;-78
2021/07/02 02:24:02;;;;;;;56.35;23.75;;;;;;;16.42;100.00;100534.75;5181310;28;20420;-79
2021/07/02 02:26:33;;;;;;;53.60;23.80;;;;;;;16.38;100.00;100537.69;5180030;28;20026;-79
2021/07/02 02:29:03;;;;;;;56.92;23.60;;;;;;;16.41;100.00;100540.13;5185374;28;20029;-78
2021/07/02 02:31:34;;;;;;;51.00;23.63;;;;;;;16.47;100.00;100543.25;5197600;28;20021;-77
2021/07/02 02:34:04;;;;;;;62.33;24.27;;;;;;;16.35;100.00;100536.06;5186865;28;20030;-78
2021/07/02 02:36:35;;;;;;;54.67;23.20;;;;;;;16.42;100.00;100542.66;5183592;28;20030;-77
2021/07/02 02:39:06;;;;;;;57.95;23.35;;;;;;;16.32;100.00;100548.56;5182202;28;20419;-78
2021/07/02 02:41:36;;;;;;;53.92;24.15;;;;;;;16.24;100.00;100553.44;5198965;28;20017;-76
2021/07/02 02:44:06;;;;;;;63.50;24.92;;;;;;;16.32;100.00;100554.69;5196218;28;20025;-77
2021/07/02 02:46:37;;;;;;;55.75;23.45;;;;;;;16.36;100.00;100556.22;5182774;28;20128;-77
2021/07/02 02:49:07;;;;;;;48.08;23.10;;;;;;;16.33;100.00;100559.03;5181120;28;20080;-82
2021/07/02 02:51:38;;;;;;;57.63;24.05;;;;;;;16.31;100.00;100566.19;5179177;28;20026;-77
2021/07/02 02:54:09;;;;;;;50.83;22.70;;;;;;;16.34;100.00;100559.84;5180943;28;20109;-79
2021/07/02 02:57:21;;;;;;;49.03;23.33;;;;;;;16.32;100.00;100557.34;5183412;28;20109;-78
2021/07/02 02:59:35;;;;;;;50.60;22.73;;;;;;;16.47;100.00;100558.22;5172463;28;20037;-76
2021/07/02 03:02:07;;;;;;;50.65;23.00;;;;;;;16.51;100.00;100565.00;5180727;28;20416;-80
2021/07/02 03:04:37;;;;;;;52.85;23.88;;;;;;;16.47;100.00;100567.00;5196788;28;20037;-80
2021/07/02 03:07:08;;;;;;;57.25;23.38;;;;;;;16.48;100.00;100570.47;5180929;28;20053;-81
2021/07/02 03:09:38;;;;;;;54.92;23.67;;;;;;;16.31;100.00;100568.81;5199158;28;20068;-80
2021/07/02 03:12:08;;;;;;;52.78;22.60;;;;;;;16.48;100.00;100571.34;5200900;28;20132;-80
2021/07/02 03:14:38;;;;;;;49.17;22.25;;;;;;;16.54;100.00;100573.59;5191947;28;20041;-76
2021/07/02 03:17:09;;;;;;;53.95;23.00;;;;;;;16.48;100.00;100575.75;5180503;28;20033;-77
2021/07/02 03:19:40;;;;;;;58.95;22.85;;;;;;;16.44;100.00;100574.25;5180149;28;20112;-77
2021/07/02 03:22:10;;;;;;;57.20;23.58;;;;;;;16.31;100.00;100579.38;5180485;28;20030;-80
2021/07/02 03:24:40;;;;;;;55.97;23.70;;;;;;;16.36;100.00;100576.50;5190607;28;20387;-84
2021/07/02 03:27:11;;;;;;;62.13;24.63;;;;;;;16.47;100.00;100577.56;5196831;28;20481;-80
2021/07/02 03:29:41;;;;;;;57.72;25.55;;;;;;;16.48;100.00;100587.19;5196279;28;20103;-78
2021/07/02 03:32:12;;;;;;;56.78;24.20;;;;;;;16.44;100.00;100590.94;5180008;28;20038;-78
2021/07/02 03:34:44;;;;;;;60.55;25.05;;;;;;;16.32;100.00;100591.63;5180213;28;20036;-78
2021/07/02 03:37:16;;;;;;;57.78;25.95;;;;;;;16.30;100.00;100598.78;5186176;28;20034;-80
2021/07/02 03:39:46;;;;;;;60.40;26.17;;;;;;;16.40;100.00;100594.69;5195434;28;20029;-80
2021/07/02 03:42:16;;;;;;;59.70;25.20;;;;;;;16.41;100.00;100598.19;5196326;28;20026;-79
2021/07/02 03:44:47;;;;;;;64.65;26.50;;;;;;;16.29;100.00;100593.56;5183515;28;20234;-80
2021/07/02 03:47:17;;;;;;;60.85;25.70;;;;;;;16.51;100.00;100597.53;5191252;28;20113;-81
2021/07/02 03:49:48;;;;;;;58.00;25.35;;;;;;;16.40;100.00;100597.31;5186936;28;20029;-77
2021/07/02 03:52:18;;;;;;;58.95;24.85;;;;;;;16.47;100.00;100590.75;5191209;28;20030;-76
2021/07/02 03:54:50;;;;;;;57.67;24.85;;;;;;;16.44;100.00;100590.06;5204505;28;20079;-76
2021/07/02 03:57:21;;;;;;;56.33;25.13;;;;;;;16.49;100.00;100595.91;5200428;28;20105;-77
2021/07/02 03:59:51;;;;;;;60.55;26.60;;;;;;;16.52;100.00;100595.78;5181979;28;20116;-80
2021/07/02 04:02:22;;;;;;;69.40;28.02;;;;;;;16.37;100.00;100600.13;5183891;28;20136;-77
2021/07/02 04:04:53;;;;;;;60.80;27.00;;;;;;;16.50;100.00;100608.16;5183381;28;20750;-77
2021/07/02 04:07:25;;;;;;;65.30;27.80;;;;;;;16.50;100.00;100600.25;5203705;28;20786;-80
2021/07/02 04:09:55;;;;;;;62.55;26.50;;;;;;;16.53;100.00;100606.22;5198120;28;20280;-77
2021/07/02 04:12:25;;;;;;;69.55;28.60;;;;;;;16.36;100.00;100609.00;5182974;28;20041;-78
2021/07/02 04:14:55;;;;;;;68.00;28.23;;;;;;;16.36;100.00;100613.44;5185096;28;20113;-80
2021/07/02 04:17:26;;;;;;;60.60;27.55;;;;;;;16.35;100.00;100630.22;5183014;28;20057;-78
2021/07/02 04:19:56;;;;;;;71.68;28.33;;;;;;;16.29;100.00;100636.66;5185144;28;20105;-80
2021/07/02 04:22:27;;;;;;;73.00;29.90;;;;;;;16.16;100.00;100625.09;5182693;28;20026;-78
2021/07/02 04:24:57;;;;;;;65.53;29.60;;;;;;;16.31;100.00;100623.34;5183048;28;20028;-77
2021/07/02 04:27:27;;;;;;;74.85;30.50;;;;;;;16.24;100.00;100624.66;5188995;28;20030;-76
2021/07/02 04:29:58;;;;;;;70.40;29.88;;;;;;;16.36;100.00;100632.72;5191450;28;20121;-76
2021/07/02 04:32:28;;;;;;;71.95;30.10;;;;;;;16.33;100.00;100627.63;5195073;28;20032;-80
2021/07/02 04:34:58;;;;;;;72.93;31.30;;;;;;;16.42;100.00;100629.72;5201864;28;20021;-77
2021/07/02 04:37:29;;;;;;;71.32;31.27;;;;;;;16.45;100.00;100628.72;5188269;28;20479;-80
2021/07/02 04:39:59;;;;;;;65.63;30.30;;;;;;;16.23;100.00;100623.78;5194583;28;20044;-80
2021/07/02 04:42:29;;;;;;;75.00;33.10;;;;;;;16.22;100.00;100624.72;5195983;28;20030;-77
2021/07/02 04:45:00;;;;;;;81.68;32.17;;;;;;;16.28;100.00;100627.03;5181990;28;20519;-77
2021/07/02 04:47:30;;;;;;;71.50;31.33;;;;;;;16.29;100.00;100630.50;5190588;28;20117;-77
2021/07/02 04:50:01;;;;;;;79.90;33.67;;;;;;;16.22;100.00;100640.56;5184155;28;20041;-78
2021/07/02 04:52:31;;;;;;;78.97;32.90;;;;;;;16.14;100.00;100639.28;5188605;28;20609;-79
2021/07/02 04:55:03;;;;;;;81.63;32.72;;;;;;;16.24;100.00;100630.75;5182171;28;20022;-76
2021/07/02 04:57:33;;;;;;;82.93;34.35;;;;;;;16.08;100.00;100640.50;5182455;28;20030;-79
2021/07/02 05:00:05;;;;;;;81.13;35.58;;;;;;;16.14;100.00;100645.44;5184718;28;20037;-79
2021/07/02 05:02:35;;;;;;;85.93;35.58;;;;;;;16.16;100.00;100643.56;5182465;28;20419;-79
2021/07/02 05:05:06;;;;;;;88.55;34.08;;;;;;;16.17;100.00;100655.81;5196449;28;20108;-79
2021/07/02 05:07:36;;;;;;;90.70;35.35;;;;;;;16.12;100.00;100652.59;5190608;28;20483;-79
2021/07/02 05:10:07;;;;;;;87.10;35.88;;;;;;;15.98;100.00;100652.50;5182167;28;20021;-77
2021/07/02 05:12:37;;;;;;;84.00;34.63;;;;;;;16.13;100.00;100659.56;5188795;28;20045;-82
2021/07/02 05:15:09;;;;;;;93.13;36.70;;;;;;;16.05;100.00;100666.22;5187577;28;20030;-80
2021/07/02 05:17:40;;;;;;;80.50;34.97;;;;;;;16.15;100.00;100656.81;5182110;28;20576;-80
2021/07/02 05:20:10;;;;;;;87.05;35.08;;;;;;;16.03;100.00;100662.81;5184349;28;20104;-81
2021/07/02 05:22:41;;;;;;;82.47;35.45;;;;;;;16.08;100.00;100669.50;5184657;28;20029;-81
2021/07/02 05:25:11;;;;;;;74.40;33.65;;;;;;;16.15;100.00;100670.88;5190983;28;20033;-77
2021/07/02 05:27:42;;;;;;;85.00;33.88;;;;;;;16.24;100.00;100672.97;5181882;28;20034;-78
2021/07/02 05:30:13;;;;;;;83.25;33.08;;;;;;;16.29;100.00;100672.72;5183944;28;20500;-85
2021/07/02 05:32:43;;;;;;;76.93;34.83;;;;;;;16.20;100.00;100674.09;5197718;28;20037;-76
2021/07/02 05:35:13;;;;;;;78.75;35.10;;;;;;;16.22;100.00;100677.47;5200598;28;20044;-77
2021/07/02 05:37:44;;;;;;;68.33;32.73;;;;;;;16.33;100.00;100672.44;5193622;28;20140;-78
2021/07/02 05:40:16;;;;;;;80.18;32.90;;;;;;;16.28;100.00;100679.78;5189917;28;20285;-80
2021/07/02 05:42:46;;;;;;;69.70;31.08;;;;;;;16.39;100.00;100677.41;5185933;28;20124;-78
2021/07/02 05:45:17;;;;;;;68.72;29.75;;;;;;;16.26;100.00;100686.09;5181666;28;20461;-77
2021/07/02 05:47:52;;;;;;;56.55;27.35;;;;;;;16.52;100.00;100688.94;5176719;28;20037;-80
2021/07/02 05:50:22;;;;;;;67.03;28.05;;;;;;;16.45;100.00;100676.19;5177811;28;20030;-81
2021/07/02 05:52:54;;;;;;;60.08;26.05;;;;;;;16.38;100.00;100683.63;5182817;28;20033;-78
2021/07/02 05:55:25;;;;;;;68.75;27.05;;;;;;;16.48;100.00;100681.28;5186190;28;20117;-79
2021/07/02 05:57:55;;;;;;;57.58;27.63;;;;;;;16.55;100.00;100686.13;5193345;28;20104;-77
2021/07/02 06:00:26;;;;;;;55.70;26.27;;;;;;;16.53;100.00;100688.00;5189245;28;20567;-79
2021/07/02 06:02:57;;;;;;;61.85;28.83;;;;;;;16.48;100.00;100692.72;5184743;28;20109;-83
2021/07/02 06:05:27;;;;;;;60.67;28.23;;;;;;;16.54;100.00;100681.78;5180993;28;20129;-80
2021/07/02 06:07:57;;;;;;;65.20;28.23;;;;;;;16.56;100.00;100685.19;5181210;28;20351;-80
2021/07/02 06:10:28;;;;;;;70.70;27.88;;;;;;;16.67;100.00;100681.91;5185588;28;20124;-77
2021/07/02 06:12:58;;;;;;;61.60;29.40;;;;;;;16.77;100.00;100679.50;5201856;28;20037;-82
2021/07/02 06:15:28;;;;;;;64.43;29.17;;;;;;;16.66;100.00;100686.38;5181766;28;20030;-82
2021/07/02 06:18:09;;;;;;;65.32;29.77;;;;;;;16.63;100.00;100690.97;5183420;28;20072;-78
2021/07/02 06:20:39;;;;;;;66.57;29.67;;;;;;;16.73;100.00;100695.63;5180849;28;20651;-78
2021/07/02 06:23:10;;;;;;;63.58;29.05;;;;;;;16.70;100.00;100697.59;5183470;28;20087;-77
2021/07/02 06:25:40;;;;;;;65.80;29.48;;;;;;;16.79;100.00;100696.09;5198627;28;20044;-77
2021/07/02 06:28:10;;;;;;;64.90;30.30;;;;;;;16.86;100.00;100697.47;5189055;28;20077;-78
2021/07/02 06:30:42;;;;;;;78.45;30.08;;;;;;;16.67;100.00;100690.69;5184726;28;20304;-81
2021/07/02 06:33:12;;;;;;;73.80;31.23;;;;;;;16.79;100.00;100690.81;5195249;28;20029;-77
2021/07/02 06:35:42;;;;;;;72.32;31.38;;;;;;;16.89;100.00;100697.28;5189776;28;20029;-77
2021/07/02 06:38:13;;;;;;;77.53;32.65;;;;;;;16.89;100.00;100693.78;5196412;28;20025;-77
2021/07/02 06:40:43;;;;;;;72.65;32.90;;;;;;;16.89;100.00;100692.00;5200742;28;20035;-80
2021/07/02 06:43:14;;;;;;;75.18;33.28;;;;;;;16.87;100.00;100690.38;5201314;28;20021;-80
2021/07/02 06:45:45;;;;;;;75.85;32.70;;;;;;;16.85;100.00;100689.63;5184065;28;20048;-80
2021/07/02 06:48:15;;;;;;;73.60;32.53;;;;;;;16.91;100.00;100686.59;5180609;28;20113;-79
2021/07/02 06:50:46;;;;;;;79.78;33.65;;;;;;;16.88;100.00;100686.78;5180220;28;20030;-80
2021/07/02 06:53:16;;;;;;;78.45;34.58;;;;;;;16.99;100.00;100690.50;5187954;28;20034;-80
2021/07/02 06:55:47;;;;;;;74.18;34.08;;;;;;;16.91;100.00;100694.53;5184712;28;20040;-77
2021/07/02 06:58:17;;;;;;;79.93;36.20;;;;;;;16.73;100.00;100697.41;5201407;28;20034;-76
2021/07/02 07:00:48;;;;;;;74.97;34.42;;;;;;;17.14;100.00;100688.75;5180505;28;20034;-77
2021/07/02 07:03:18;;;;;;;71.25;33.55;;;;;;;16.90;100.00;100684.91;5184422;28;20430;-81
2021/07/02 07:05:50;;;;;;;67.15;32.85;;;;;;;17.00;100.00;100680.78;5200874;28;20025;-80
2021/07/02 07:08:20;;;;;;;75.50;33.63;;;;;;;16.88;100.00;100686.78;5201250;28;20037;-81
2021/07/02 07:10:50;;;;;;;68.03;31.05;;;;;;;16.99;100.00;100687.84;5200684;28;20033;-79
2021/07/02 07:13:20;;;;;;;69.22;31.23;;;;;;;16.98;100.00;100694.06;5189142;28;20062;-80
2021/07/02 07:15:51;;;;;;;66.80;30.97;;;;;;;16.84;100.00;100707.25;5186919;28;20454;-79
2021/07/02 07:18:22;;;;;;;69.28;31.70;;;;;;;16.92;100.00;100693.59;5183066;28;20359;-81
2021/07/02 07:20:52;;;;;;;69.22;31.08;;;;;;;17.02;100.00;100700.03;5186777;28;20033;-77
2021/07/02 07:23:22;;;;;;;68.40;31.97;;;;;;;17.22;100.00;100697.91;5184626;28;20021;-77
2021/07/02 07:25:52;;;;;;;72.28;33.22;;;;;;;17.34;100.00;100701.63;5183621;28;20616;-79
2021/07/02 07:28:23;;;;;;;69.05;31.55;;;;;;;17.25;100.00;100696.84;5193162;28;20029;-79
2021/07/02 07:30:53;;;;;;;68.50;31.52;;;;;;;17.32;100.00;100700.81;5184197;28;20514;-81
2021/07/02 07:33:24;;;;;;;73.40;32.92;;;;;;;17.22;100.00;100707.59;5196686;28;20053;-80
2021/07/02 07:35:54;;;;;;;66.45;32.92;;;;;;;17.28;100.00;100701.97;5204454;28;20104;-76
2021/07/02 07:38:24;;;;;;;73.80;34.92;;;;;;;17.46;100.00;100707.00;5205206;28;20025;-77
2021/07/02 07:40:55;;;;;;;66.20;34.65;;;;;;;17.59;100.00;100701.78;5186714;28;20048;-76
2021/07/02 07:43:27;;;;;;;66.75;32.60;;;;;;;17.67;100.00;100699.53;5192954;28;20107;-83
2021/07/02 07:45:57;;;;;;;62.75;31.52;;;;;;;17.38;100.00;100697.84;5192627;28;20464;-82
2021/07/02 07:48:28;;;;;;;55.72;28.23;;;;;;;17.63;100.00;100709.44;5184152;28;20064;-81
2021/07/02 07:51:14;;;;;;;61.22;29.20;;;;;;;17.54;100.00;100709.16;5183567;28;20472;-82
2021/07/02 07:53:45;;;;;;;52.30;29.50;;;;;;;17.38;100.00;100708.41;5203625;28;20036;-80
2021/07/02 07:56:15;;;;;;;57.60;28.63;;;;;;;17.63;100.00;100706.78;5188926;28;20038;-77
2021/07/02 07:58:45;;;;;;;54.83;26.20;;;;;;;17.79;100.00;100712.81;5191542;28;20025;-76
2021/07/02 08:01:16;;;;;;;57.47;24.08;;;;;;;17.78;100.00;100713.78;5190010;28;20322;-80
2021/07/02 08:03:46;;;;;;;47.42;24.58;;;;;;;17.98;100.00;100712.53;5190977;28;20561;-80
2021/07/02 08:06:16;;;;;;;46.92;23.83;;;;;;;18.04;100.00;100715.59;5192009;28;20041;-81
2021/07/02 08:08:47;;;;;;;50.97;23.30;;;;;;;18.21;100.00;100719.81;5194939;28;20033;-81
2021/07/02 08:11:17;;;;;;;50.15;22.77;;;;;;;18.39;100.00;100721.31;5191439;28;20029;-81
2021/07/02 08:13:47;;;;;;;47.60;20.07;;;;;;;18.14;100.00;100721.19;5193944;28;20059;-79
2021/07/02 08:16:17;;;;;;;47.10;20.33;;;;;;;17.92;100.00;100720.81;5192210;28;20281;-81
2021/07/02 08:18:48;;;;;;;45.08;21.98;;;;;;;17.98;100.00;100720.47;5191443;28;20580;-81
2021/07/02 08:21:18;;;;;;;42.27;22.00;;;;;;;17.87;100.00;100718.50;5192015;28;20048;-81
2021/07/02 08:23:48;;;;;;;46.67;23.95;;;;;;;17.88;100.00;100720.19;5191539;28;20284;-78
2021/07/02 08:26:19;;;;;;;43.43;24.30;;;;;;;18.12;100.00;100723.91;5195286;28;20029;-79
2021/07/02 08:31:38;;;;;;;46.88;28.08;;;;;;;17.86;100.00;100721.22;5189931;28;20593;-79
2021/07/02 08:34:09;;;;;;;43.45;26.83;;;;;;;17.71;100.00;100727.47;5188402;28;20037;-79
2021/07/02 08:36:39;;;;;;;42.55;25.80;;;;;;;17.70;100.00;100724.00;5193661;28;20026;-80
2021/07/02 08:39:10;;;;;;;40.55;23.98;;;;;;;17.96;100.00;100732.91;5191357;28;20029;-82
2021/07/02 08:41:41;;;;;;;37.30;22.17;;;;;;;18.02;100.00;100730.72;5191338;28;20037;-77
2021/07/02 08:44:11;;;;;;;37.55;20.00;;;;;;;18.20;100.00;100740.13;5188156;28;20037;-78
2021/07/02 08:46:44;;;;;;;34.78;19.58;;;;;;;18.26;100.00;100733.59;5194483;28;20029;-80
2021/07/02 08:49:17;;;;;;;29.92;17.40;;;;;;;18.55;100.00;100741.38;5188533;28;20120;-79
2021/07/02 08:51:47;;;;;;;35.00;16.80;;;;;;;18.39;100.00;100735.41;5190665;28;20376;-81
2021/07/02 08:54:18;;;;;;;30.88;17.27;;;;;;;18.53;100.00;100739.81;5194439;28;20048;-79
2021/07/02 08:56:57;;;;;;;33.50;16.15;;;;;;;18.45;100.00;100736.78;5191379;28;20561;-82
2021/07/02 08:59:29;;;;;;;34.58;15.48;;;;;;;18.39;100.00;100738.06;5188508;28;20030;-78
2021/07/02 09:02:00;;;;;;;29.27;15.25;;;;;;;18.42;100.00;100743.16;5190463;28;20184;-79
2021/07/02 09:04:34;;;;;;;27.38;15.05;;;;;;;18.29;100.00;100751.97;5190198;28;20033;-79
2021/07/02 09:07:10;;;;;;;32.38;15.23;;;;;;;18.28;100.00;100752.91;5193174;28;20029;-81
2021/07/02 09:09:57;;;;;;;30.60;15.63;;;;;;;18.29;100.00;100741.38;5193227;28;20029;-80
2021/07/02 09:12:32;;;;;;;30.95;16.60;;;;;;;18.72;100.00;100753.53;5188106;28;20076;-81
2021/07/02 09:15:07;;;;;;;30.45;14.82;;;;;;;18.86;100.00;100739.28;5193018;28;20017;-80
2021/07/02 09:17:54;;;;;;;28.30;14.95;;;;;;;20.19;95.35;100736.97;5193114;28;20042;-81
2021/07/02 09:20:29;;;;;;;25.70;13.30;;;;;;;21.00;88.22;100741.47;5183711;28;20113;-78
2021/07/02 09:23:02;;;;;;;22.50;12.05;;;;;;;21.19;88.02;100731.97;5193645;28;20575;-80
2021/07/02 09:25:47;;;;;;;21.60;11.52;;;;;;;20.49;88.57;100739.19;5193987;28;20418;-79
2021/07/02 09:28:19;;;;;;;24.70;12.13;;;;;;;20.57;89.71;100736.78;5197735;28;20546;-79
2021/07/02 09:30:54;;;;;;;20.20;10.95;;;;;;;20.46;90.54;100750.84;5192789;28;20026;-79
2021/07/02 09:33:25;;;;;;;21.60;11.77;;;;;;;20.11;93.48;100743.78;5185722;28;20057;-79
2021/07/02 09:36:00;;;;;;;23.33;12.57;;;;;;;19.57;95.01;100752.94;5193537;28;20088;-79
2021/07/02 09:38:38;;;;;;;23.00;11.90;;;;;;;19.36;97.21;100763.22;5191504;28;20025;-79
2021/07/02 09:41:09;;;;;;;19.42;11.32;;;;;;;19.22;94.88;100763.31;5187491;28;20033;-79
2021/07/02 09:43:40;;;;;;;17.90;10.25;;;;;;;19.20;96.45;100773.19;5192790;28;20037;-79
2021/07/02 09:46:11;;;;;;;19.25;10.68;;;;;;;18.81;96.79;100773.16;5192006;28;20041;-79
2021/07/02 09:48:43;;;;;;;20.13;10.48;;;;;;;18.68;97.27;100775.88;5190527;28;20033;-79
2021/07/02 09:51:23;;;;;;;18.05;9.95;;;;;;;18.92;98.00;100765.34;5189191;28;20025;-80
2021/07/02 09:54:07;;;;;;;21.83;10.80;;;;;;;18.84;99.62;100769.44;5186566;28;20034;-79
2021/07/02 09:56:37;;;;;;;20.80;10.90;;;;;;;19.07;97.44;100768.78;5191259;28;20029;-79
2021/07/02 09:59:15;;;;;;;21.92;10.73;;;;;;;18.89;97.33;100768.19;5191820;28;20052;-80
2021/07/02 10:01:45;;;;;;;21.33;10.93;;;;;;;18.91;97.34;100773.41;5190072;28;20030;-80
2021/07/02 10:04:16;;;;;;;20.43;10.40;;;;;;;18.76;97.60;100779.72;5192424;28;20380;-80
2021/07/02 10:06:46;;;;;;;20.67;11.15;;;;;;;18.81;98.38;100777.59;5189680;28;20285;-79
2021/07/02 10:09:16;;;;;;;24.75;11.32;;;;;;;18.65;99.06;100779.56;5189703;28;20569;-79
2021/07/02 10:11:47;;;;;;;25.63;11.00;;;;;;;18.75;98.33;100781.50;5187614;28;20029;-79
2021/07/02 10:14:17;;;;;;;21.45;10.88;;;;;;;18.76;98.15;100783.19;5188140;28;20438;-79
2021/07/02 10:16:49;;;;;;;20.33;10.73;;;;;;;18.94;99.69;100778.50;5186809;28;20530;-79
2021/07/02 10:19:20;;;;;;;19.80;10.80;;;;;;;18.83;100.00;100789.81;5185618;28;20479;-79
2021/07/02 10:21:51;;;;;;;17.23;10.20;;;;;;;19.07;99.47;100785.50;5186185;28;20033;-80
2021/07/02 10:24:21;;;;;;;24.30;11.43;;;;;;;19.07;98.86;100790.81;5187277;28;20083;-79
2021/07/02 10:26:52;;;;;;;22.42;10.18;;;;;;;18.84;100.00;100794.16;5189410;28;20053;-79
2021/07/02 10:29:22;;;;;;;21.77;11.48;;;;;;;18.67;100.00;100795.34;5193720;28;20161;-79
2021/07/02 10:31:53;;;;;;;24.65;12.15;;;;;;;18.75;100.00;100800.03;5190032;28;20033;-80
2021/07/02 10:34:24;;;;;;;20.13;11.07;;;;;;;18.84;99.96;100798.59;5192886;28;20029;-80
2021/07/02 10:36:54;;;;;;;22.92;11.32;;;;;;;18.66;98.72;100791.84;5189013;28;20176;-79
2021/07/02 10:39:30;;;;;;;24.38;11.32;;;;;;;18.80;99.19;100802.38;5192051;28;20093;-80
2021/07/02 10:42:13;;;;;;;25.35;11.55;;;;;;;18.77;97.24;100798.13;5190673;28;20033;-79
2021/07/02 10:44:53;;;;;;;18.55;10.77;;;;;;;18.87;98.87;100796.59;5189572;28;20075;-79
2021/07/02 10:47:25;;;;;;;20.15;9.73;;;;;;;18.73;97.32;100797.59;5190369;28;20030;-80
2021/07/02 10:49:55;;;;;;;18.13;10.70;;;;;;;18.92;99.00;100797.13;5188230;28;20100;-80
2021/07/02 10:52:28;;;;;;;24.67;10.83;;;;;;;19.12;97.75;100788.69;5192435;28;20056;-79
2021/07/02 10:54:58;;;;;;;20.35;9.93;;;;;;;19.56;96.57;100789.22;5188546;28;20272;-79
2021/07/02 10:57:28;;;;;;;18.43;9.70;;;;;;;19.65;94.85;100777.97;5187724;28;20030;-79
2021/07/02 11:00:01;;;;;;;18.27;9.20;;;;;;;19.80;95.49;100782.19;5193203;28;20364;-79
2021/07/02 11:02:32;;;;;;;19.38;9.23;;;;;;;19.93;97.57;100785.69;5190704;28;20326;-79
2021/07/02 11:05:21;;;;;;;15.73;8.65;;;;;;;20.34;91.80;100793.41;5182263;28;20104;-79
2021/07/02 11:07:53;;;;;;;16.55;7.50;;;;;;;20.11;90.05;100786.25;5183207;28;20022;-80
2021/07/02 11:10:24;;;;;;;14.68;8.32;;;;;;;20.18;91.07;100795.44;5181431;28;20685;-80
2021/07/02 11:12:59;;;;;;;16.08;7.50;;;;;;;19.75;91.16;100794.94;5184300;28;20112;-79
2021/07/02 11:15:30;;;;;;;18.88;8.35;;;;;;;19.79;93.09;100800.91;5186301;28;20538;-79
2021/07/02 11:18:14;;;;;;;16.08;8.45;;;;;;;19.75;92.31;100800.25;5190021;28;20030;-79
2021/07/02 11:20:45;;;;;;;14.02;7.85;;;;;;;19.80;93.64;100806.06;5190239;28;20079;-79
2021/07/02 11:23:18;;;;;;;16.65;8.73;;;;;;;19.86;93.14;100804.81;5193445;28;20053;-79
2021/07/02 11:26:01;;;;;;;16.13;9.02;;;;;;;19.55;94.71;100814.03;5188806;28;20026;-79